createdAt,value
2022-11-27T00:01:51.605Z,98170.25
2022-11-27T00:04:18.370Z,98162.38
2022-11-27T00:06:45.351Z,98166.13
2022-11-27T00:09:39.187Z,98166.94
2022-11-27T00:13:49.371Z,98160.72
2022-11-27T00:27:23.808Z,98137.66
2022-11-27T00:29:50.398Z,98134.28
2022-11-27T00:32:50.724Z,98135.25
2022-11-27T00:38:16.375Z,98133.44
2022-11-27T00:40:43.027Z,98117.50
2022-11-27T00:43:10.092Z,98122.03
2022-11-27T00:45:36.670Z,98121.53
2022-11-27T00:48:05.092Z,98110.66
2022-11-27T00:50:34.479Z,98102.03
2022-11-27T00:53:01.229Z,98088.88
2022-11-27T00:55:27.887Z,98093.41
2022-11-27T00:57:54.613Z,98091.47
2022-11-27T01:00:22.335Z,98083.19
2022-11-27T01:02:49.860Z,98074.41
2022-11-27T01:05:19.951Z,98079.47
2022-11-27T01:07:54.593Z,98066.13
2022-11-27T01:10:32.102Z,98063.34
2022-11-27T01:13:04.912Z,98063.84
2022-11-27T01:23:46.175Z,98060.56
2022-11-27T01:27:15.272Z,98057.63
2022-11-27T01:36:16.926Z,98043.28
2022-11-27T01:38:47.756Z,98042.97
2022-11-27T01:41:24.395Z,98041.03
2022-11-27T01:43:52.398Z,98042.03
2022-11-27T01:46:31.088Z,98042.97
2022-11-27T01:49:22.689Z,98029.66
2022-11-27T01:51:57.452Z,98020.66
2022-11-27T01:54:31.585Z,98021.00
2022-11-27T01:57:06.607Z,98023.69
2022-11-27T01:59:33.869Z,98024.03
2022-11-27T02:02:03.420Z,98028.44
2022-11-27T02:04:30.769Z,98036.09
2022-11-27T02:06:59.617Z,98025.53
2022-11-27T02:09:28.177Z,98021.44
2022-11-27T02:12:25.171Z,98023.38
2022-11-27T02:15:08.090Z,98019.78
2022-11-27T02:17:49.855Z,98019.13
2022-11-27T02:20:43.330Z,98023.50
2022-11-27T02:23:12.888Z,98024.94
2022-11-27T02:25:57.719Z,98022.34
2022-11-27T02:28:34.630Z,98010.50
2022-11-27T02:31:31.270Z,98015.84
2022-11-27T02:34:09.386Z,98011.94
2022-11-27T02:36:39.551Z,98014.53
2022-11-27T02:39:12.235Z,98016.53
2022-11-27T02:42:06.139Z,98008.38
2022-11-27T02:44:39.202Z,98005.44
2022-11-27T02:47:06.350Z,98013.88
2022-11-27T02:49:36.463Z,98013.06
2022-11-27T02:52:04.630Z,98008.09
2022-11-27T02:54:32.336Z,98007.84
2022-11-27T02:57:18.712Z,98007.91
2022-11-27T02:59:45.826Z,98009.00
2022-11-27T03:02:19.525Z,98009.97
2022-11-27T03:04:52.667Z,98006.59
2022-11-27T03:07:29.455Z,98001.72
2022-11-27T03:10:03.513Z,97995.53
2022-11-27T03:12:30.231Z,97984.97
2022-11-27T03:14:57.028Z,97992.78
2022-11-27T03:17:53.000Z,97992.16
2022-11-27T03:20:22.025Z,98001.91
2022-11-27T03:22:49.659Z,97989.56
2022-11-27T03:25:16.610Z,97979.97
2022-11-27T03:27:49.788Z,97986.16
2022-11-27T03:30:16.511Z,97973.66
2022-11-27T03:32:43.517Z,97974.63
2022-11-27T03:35:12.768Z,97977.84
2022-11-27T03:37:39.551Z,97972.66
2022-11-27T03:41:41.054Z,97976.41
2022-11-27T03:45:21.214Z,97963.56
2022-11-27T03:48:23.490Z,97973.31
2022-11-27T03:50:55.780Z,97975.91
2022-11-27T03:53:38.650Z,97980.63
2022-11-27T03:56:36.620Z,97977.84
2022-11-27T03:59:22.766Z,97969.41
2022-11-27T04:01:51.240Z,97968.44
2022-11-27T04:04:23.214Z,97987.97
2022-11-27T04:06:50.172Z,97967.63
2022-11-27T04:09:17.159Z,97961.56
2022-11-27T04:11:44.050Z,97967.41
2022-11-27T04:14:10.784Z,97966.94
2022-11-27T04:16:37.695Z,97966.28
2022-11-27T04:19:07.046Z,97960.47
2022-11-27T04:21:51.156Z,97963.84
2022-11-27T04:24:17.910Z,97955.91
2022-11-27T04:26:44.866Z,97954.44
2022-11-27T04:29:11.525Z,97950.53
2022-11-27T04:31:38.282Z,97947.94
2022-11-27T04:34:12.695Z,97940.13
2022-11-27T04:36:50.007Z,97938.84
2022-11-27T04:39:18.525Z,97941.41
2022-11-27T04:41:55.057Z,97936.84
2022-11-27T04:44:24.248Z,97938.47
2022-11-27T04:46:53.107Z,97923.50
2022-11-27T04:49:22.472Z,97935.22
2022-11-27T04:51:52.467Z,97919.59
2022-11-27T04:54:25.431Z,97923.03
2022-11-27T04:56:54.898Z,97922.53
2022-11-27T04:59:28.092Z,97915.72
2022-11-27T05:01:55.009Z,97918.63
2022-11-27T05:04:32.674Z,97905.94
2022-11-27T05:07:03.159Z,97903.34
2022-11-27T05:09:29.786Z,97915.38
2022-11-27T05:11:56.601Z,97916.19
2022-11-27T05:14:29.246Z,97917.00
2022-11-27T05:16:58.498Z,97914.06
2022-11-27T05:19:31.165Z,97916.66
2022-11-27T05:22:10.407Z,97913.56
2022-11-27T05:24:37.100Z,97921.72
2022-11-27T05:27:04.027Z,97918.94
2022-11-27T05:29:30.672Z,97919.44
2022-11-27T05:31:57.512Z,97924.75
2022-11-27T05:34:24.436Z,97927.03
2022-11-27T05:36:51.118Z,97920.81
2022-11-27T05:39:17.711Z,97919.66
2022-11-27T05:41:44.316Z,97912.97
2022-11-27T05:44:15.210Z,97910.00
2022-11-27T05:46:43.810Z,97909.03
2022-11-27T05:49:15.442Z,97901.22
2022-11-27T05:51:46.367Z,97910.00
2022-11-27T05:54:17.520Z,97908.38
2022-11-27T05:56:44.115Z,97920.19
2022-11-27T05:59:10.992Z,97927.84
2022-11-27T06:01:37.768Z,97932.72
2022-11-27T06:04:04.528Z,97922.34
2022-11-27T06:06:31.214Z,97912.91
2022-11-27T06:08:57.686Z,97910.31
2022-11-27T06:11:24.371Z,97917.19
2022-11-27T06:13:51.026Z,97925.69
2022-11-27T06:16:23.565Z,97930.59
2022-11-27T06:18:54.812Z,97932.22
2022-11-27T06:21:22.922Z,97923.44
2022-11-27T06:23:49.777Z,97925.53
2022-11-27T06:26:22.893Z,97930.06
2022-11-27T06:28:50.165Z,97915.16
2022-11-27T06:31:19.779Z,97912.91
2022-11-27T06:33:48.030Z,97925.88
2022-11-27T06:36:15.087Z,97931.00
2022-11-27T06:38:41.732Z,97939.16
2022-11-27T06:41:13.871Z,97942.41
2022-11-27T06:43:40.741Z,97944.66
2022-11-27T06:46:13.640Z,97940.09
2022-11-27T06:48:40.354Z,97936.13
2022-11-27T06:51:08.329Z,97932.44
2022-11-27T06:53:37.452Z,97922.88
2022-11-27T06:56:08.908Z,97917.69
2022-11-27T06:58:36.102Z,97904.84
2022-11-27T07:01:05.592Z,97909.22
2022-11-27T07:03:32.084Z,97897.81
2022-11-27T07:06:03.222Z,97898.81
2022-11-27T07:08:30.267Z,97894.56
2022-11-27T07:11:08.211Z,97892.63
2022-11-27T07:13:34.974Z,97886.50
2022-11-27T07:16:07.617Z,97887.56
2022-11-27T07:18:40.463Z,97886.66
2022-11-27T07:21:07.588Z,97886.06
2022-11-27T07:23:34.149Z,97892.63
2022-11-27T07:26:06.034Z,97887.47
2022-11-27T07:28:32.556Z,97891.06
2022-11-27T07:30:59.578Z,97880.97
2022-11-27T07:33:26.515Z,97885.34
2022-11-27T07:36:01.378Z,97882.94
2022-11-27T07:38:27.924Z,97871.22
2022-11-27T07:40:54.339Z,97862.75
2022-11-27T07:43:20.861Z,97863.28
2022-11-27T07:45:47.384Z,97849.13
2022-11-27T07:48:13.811Z,97852.03
2022-11-27T07:50:40.480Z,97849.44
2022-11-27T07:53:06.881Z,97840.63
2022-11-27T07:55:33.303Z,97840.63
2022-11-27T07:57:59.721Z,97845.81
2022-11-27T08:00:26.154Z,97837.44
2022-11-27T08:02:52.570Z,97838.19
2022-11-27T08:05:19.158Z,97824.56
2022-11-27T08:07:45.680Z,97835.38
2022-11-27T08:10:12.193Z,97843.09
2022-11-27T08:12:38.732Z,97837.75
2022-11-27T08:15:05.749Z,97836.28
2022-11-27T08:17:34.508Z,97834.59
2022-11-27T08:20:01.231Z,97839.50
2022-11-27T08:22:27.778Z,97830.63
2022-11-27T08:24:54.340Z,97839.44
2022-11-27T08:27:20.744Z,97839.59
2022-11-27T08:29:47.931Z,97833.13
2022-11-27T08:32:14.643Z,97835.91
2022-11-27T08:34:41.264Z,97838.31
2022-11-27T08:37:08.153Z,97829.88
2022-11-27T08:39:34.611Z,97823.00
2022-11-27T08:42:01.202Z,97825.47
2022-11-27T08:44:27.601Z,97826.91
2022-11-27T08:46:54.059Z,97821.44
2022-11-27T08:49:20.580Z,97822.66
2022-11-27T08:51:46.983Z,97822.66
2022-11-27T08:54:13.431Z,97822.94
2022-11-27T08:56:39.842Z,97817.19
2022-11-27T08:59:06.315Z,97827.75
2022-11-27T09:01:33.323Z,97827.81
2022-11-27T09:04:00.067Z,97832.66
2022-11-27T09:06:29.461Z,97814.84
2022-11-27T09:08:57.333Z,97817.59
2022-11-27T09:11:23.801Z,97807.97
2022-11-27T09:13:50.645Z,97802.63
2022-11-27T09:16:22.210Z,97799.06
2022-11-27T09:18:50.547Z,97795.56
2022-11-27T09:21:18.459Z,97790.88
2022-11-27T09:23:45.173Z,97785.44
2022-11-27T09:26:14.372Z,97790.06
2022-11-27T09:28:41.956Z,97782.97
2022-11-27T09:31:11.239Z,97791.88
2022-11-27T09:33:39.617Z,97788.38
2022-11-27T09:36:16.199Z,97784.75
2022-11-27T09:38:42.762Z,97783.53
2022-11-27T09:41:11.981Z,97783.91
2022-11-27T09:43:49.395Z,97782.63
2022-11-27T09:46:26.050Z,97786.53
2022-11-27T09:48:54.344Z,97782.31
2022-11-27T09:51:20.669Z,97784.78
2022-11-27T09:53:58.260Z,97783.19
2022-11-27T09:56:25.117Z,97784.22
2022-11-27T09:58:59.994Z,97767.47
2022-11-27T10:01:39.224Z,97761.78
2022-11-27T10:04:14.931Z,97750.66
2022-11-27T10:06:54.494Z,97741.91
2022-11-27T10:09:39.019Z,97744.19
2022-11-27T10:12:21.931Z,97742.81
2022-11-27T10:15:14.659Z,97743.31
2022-11-27T10:17:52.242Z,97743.88
2022-11-27T10:20:47.181Z,97734.63
2022-11-27T10:23:59.098Z,97727.06
2022-11-27T10:26:34.027Z,97724.78
2022-11-27T10:29:19.139Z,97721.31
2022-11-27T10:31:51.849Z,97713.66
2022-11-27T10:34:37.043Z,97711.63
2022-11-27T10:37:13.115Z,97711.25
2022-11-27T10:40:09.330Z,97707.47
2022-11-27T10:43:02.119Z,97700.09
2022-11-27T10:45:44.341Z,97688.78
2022-11-27T10:48:12.438Z,97686.50
2022-11-27T10:50:39.449Z,97687.63
2022-11-27T10:53:14.797Z,97687.63
2022-11-27T10:55:59.903Z,97678.66
2022-11-27T10:58:34.827Z,97667.78
2022-11-27T11:01:09.883Z,97663.47
2022-11-27T11:03:36.905Z,97664.38
2022-11-27T11:06:31.013Z,97656.94
2022-11-27T11:09:04.093Z,97660.38
2022-11-27T11:11:30.562Z,97657.41
2022-11-27T11:13:57.149Z,97649.09
2022-11-27T11:16:34.972Z,97646.88
2022-11-27T11:19:02.567Z,97644.22
2022-11-27T11:21:33.189Z,97635.09
2022-11-27T11:24:06.311Z,97621.34
2022-11-27T11:26:40.290Z,97618.09
2022-11-27T11:29:36.228Z,97623.84
2022-11-27T11:32:07.877Z,97612.38
2022-11-27T11:34:35.082Z,97596.84
2022-11-27T11:37:05.255Z,97593.88
2022-11-27T11:40:10.770Z,97586.00
2022-11-27T11:42:57.299Z,97573.56
2022-11-27T11:45:26.527Z,97569.75
2022-11-27T11:47:57.459Z,97565.09
2022-11-27T11:50:31.681Z,97557.91
2022-11-27T11:53:31.964Z,97571.81
2022-11-27T11:56:16.351Z,97560.78
2022-11-27T11:59:16.982Z,97552.13
2022-11-27T12:02:06.141Z,97546.69
2022-11-27T12:05:03.636Z,97550.88
2022-11-27T12:08:05.008Z,97544.00
2022-11-27T12:10:35.779Z,97538.91
2022-11-27T12:13:34.493Z,97529.75
2022-11-27T12:16:28.765Z,97532.41
2022-11-27T12:19:13.927Z,97520.16
2022-11-27T12:22:14.321Z,97521.31
2022-11-27T12:25:14.992Z,97515.41
2022-11-27T12:28:07.409Z,97519.16
2022-11-27T12:31:04.707Z,97516.66
2022-11-27T12:33:48.327Z,97523.34
2022-11-27T12:36:30.057Z,97514.25
2022-11-27T12:39:18.221Z,97508.47
2022-11-27T12:41:44.532Z,97509.13
2022-11-27T12:44:48.109Z,97504.47
2022-11-27T12:47:39.950Z,97508.41
2022-11-27T12:50:21.121Z,97508.13
2022-11-27T12:52:57.079Z,97510.91
2022-11-27T12:55:29.002Z,97499.22
2022-11-27T12:58:07.085Z,97495.41
2022-11-27T13:00:39.186Z,97483.34
2022-11-27T13:03:14.094Z,97488.19
2022-11-27T13:05:50.165Z,97480.78
2022-11-27T13:08:26.386Z,97471.41
2022-11-27T13:10:57.276Z,97469.50
2022-11-27T13:13:34.081Z,97469.97
2022-11-27T13:16:11.077Z,97472.59
2022-11-27T13:18:41.497Z,97467.03
2022-11-27T13:21:15.447Z,97465.84
2022-11-27T13:23:42.079Z,97466.31
2022-11-27T13:26:26.268Z,97459.69
2022-11-27T13:28:58.307Z,97466.38
2022-11-27T13:31:29.540Z,97463.53
2022-11-27T13:34:07.127Z,97460.00
2022-11-27T13:36:39.674Z,97458.22
2022-11-27T13:39:06.909Z,97454.13
2022-11-27T13:41:41.542Z,97461.06
2022-11-27T13:44:26.120Z,97459.09
2022-11-27T13:46:56.839Z,97448.63
2022-11-27T13:49:32.602Z,97443.91
2022-11-27T13:52:12.259Z,97440.09
2022-11-27T13:54:39.305Z,97439.75
2022-11-27T13:57:14.749Z,97435.78
2022-11-27T13:59:41.411Z,97435.13
2022-11-27T14:02:09.025Z,97433.81
2022-11-27T14:04:50.606Z,97427.94
2022-11-27T14:07:21.459Z,97435.16
2022-11-27T14:09:52.920Z,97426.31
2022-11-27T14:12:27.149Z,97425.28
2022-11-27T14:15:16.227Z,97419.00
2022-11-27T14:17:45.165Z,97415.69
2022-11-27T14:20:17.739Z,97414.91
2022-11-27T14:23:11.106Z,97415.44
2022-11-27T14:25:40.084Z,97408.59
2022-11-27T14:28:21.829Z,97410.50
2022-11-27T14:30:53.823Z,97404.38
2022-11-27T14:33:25.954Z,97401.91
2022-11-27T14:36:04.518Z,97395.47
2022-11-27T14:38:33.377Z,97391.56
2022-11-27T14:41:16.262Z,97387.16
2022-11-27T14:43:42.741Z,97380.00
2022-11-27T14:46:18.576Z,97371.97
2022-11-27T14:48:54.840Z,97370.63
2022-11-27T14:51:24.455Z,97360.50
2022-11-27T14:53:56.759Z,97354.53
2022-11-27T14:56:23.341Z,97354.25
2022-11-27T14:58:54.980Z,97347.22
2022-11-27T15:01:29.994Z,97341.03
2022-11-27T15:03:57.306Z,97335.41
2022-11-27T15:06:25.632Z,97340.28
2022-11-27T15:09:15.796Z,97342.75
2022-11-27T15:11:55.174Z,97345.25
2022-11-27T15:14:22.588Z,97339.22
2022-11-27T15:16:51.677Z,97342.13
2022-11-27T15:19:37.626Z,97332.47
2022-11-27T15:22:04.988Z,97328.50
2022-11-27T15:24:34.302Z,97325.94
2022-11-27T15:27:18.071Z,97330.44
2022-11-27T15:29:53.551Z,97325.41
2022-11-27T15:32:25.816Z,97326.28
2022-11-27T15:34:53.500Z,97320.28
2022-11-27T15:37:34.112Z,97325.13
2022-11-27T15:40:01.835Z,97316.25
2022-11-27T15:42:30.614Z,97313.44
2022-11-27T15:44:58.421Z,97307.84
2022-11-27T15:47:35.338Z,97313.44
2022-11-27T15:50:03.305Z,97307.03
2022-11-27T15:52:35.107Z,97303.78
2022-11-27T16:00:14.357Z,97301.63
2022-11-27T16:10:35.112Z,97300.28
2022-11-27T16:17:17.312Z,97298.50
2022-11-27T16:20:36.469Z,97291.50
2022-11-27T16:24:48.533Z,97292.91
2022-11-27T16:36:35.138Z,97296.38
2022-11-27T16:37:18.572Z,97294.34
2022-11-27T16:39:45.264Z,97282.25
2022-11-27T16:42:12.059Z,97281.44
2022-11-27T16:55:39.766Z,97255.22
2022-11-27T16:58:06.187Z,97258.25
2022-11-27T17:00:32.741Z,97250.00
2022-11-27T17:03:08.066Z,97251.25
2022-11-27T17:05:40.137Z,97247.28
2022-11-27T17:19:41.962Z,97227.94
2022-11-27T17:26:24.846Z,97205.34
2022-11-27T17:36:26.939Z,97189.31
2022-11-27T17:39:08.440Z,97177.22
2022-11-27T17:41:43.998Z,97180.44
2022-11-27T17:44:11.565Z,97180.25
2022-11-27T17:46:40.065Z,97182.47
2022-11-27T17:49:13.441Z,97178.88
2022-11-27T17:51:43.743Z,97172.44
2022-11-27T17:54:12.089Z,97170.63
2022-11-27T17:56:39.328Z,97174.88
2022-11-27T17:59:10.295Z,97163.63
2022-11-27T18:51:44.912Z,97118.94
2022-11-27T18:54:15.731Z,97119.72
2022-11-27T18:56:45.418Z,97129.38
2022-11-27T19:06:31.963Z,97094.56
2022-11-27T19:09:09.597Z,97100.41
2022-11-27T19:15:55.933Z,97088.31
2022-11-27T19:22:49.453Z,97078.63
2022-11-27T19:29:22.430Z,97069.38
2022-11-27T19:31:49.462Z,97061.75
2022-11-27T19:34:18.846Z,97049.84
2022-11-27T19:36:45.367Z,97047.59
2022-11-27T19:39:14.282Z,97046.38
2022-11-27T19:41:44.093Z,97035.09
2022-11-27T19:44:13.179Z,97051.25
2022-11-27T19:46:39.871Z,97046.41
2022-11-27T19:49:12.800Z,97033.13
2022-11-27T19:51:39.508Z,97044.00
2022-11-27T19:54:10.259Z,97033.31
2022-11-27T19:56:39.878Z,97035.34
2022-11-27T19:59:06.919Z,97019.81
2022-11-27T20:01:38.375Z,97023.44
2022-11-27T20:04:06.118Z,97024.63
2022-11-27T20:06:41.612Z,97020.56
2022-11-27T20:09:18.278Z,97028.22
2022-11-27T20:11:44.974Z,97032.47
2022-11-27T20:14:17.700Z,97022.97
2022-11-27T20:16:46.807Z,97014.94
2022-11-27T20:19:25.141Z,97009.25
2022-11-27T20:21:51.731Z,97007.84
2022-11-27T20:24:18.327Z,97011.63
2022-11-27T20:26:44.863Z,97008.00
2022-11-27T20:35:40.798Z,97000.59
2022-11-27T20:38:07.883Z,96989.50
2022-11-27T20:40:37.886Z,96987.47
2022-11-27T20:43:04.371Z,96991.53
2022-11-27T20:45:31.187Z,96979.88
2022-11-27T20:47:58.073Z,96977.09
2022-11-27T20:58:03.021Z,96974.72
2022-11-27T21:00:59.157Z,96978.34
2022-11-27T21:03:35.790Z,96987.38
2022-11-27T21:09:54.694Z,96972.69
2022-11-27T21:15:21.093Z,96962.63
2022-11-27T21:17:59.154Z,96963.84
2022-11-27T21:20:37.389Z,96960.63
2022-11-27T21:27:08.998Z,96963.31
2022-11-27T21:29:49.256Z,96951.69
2022-11-27T21:32:18.101Z,96950.72
2022-11-27T21:35:00.566Z,96941.88
2022-11-27T21:37:46.159Z,96937.91
2022-11-27T21:40:24.294Z,96951.22
2022-11-27T21:42:52.095Z,96951.25
2022-11-27T21:45:21.552Z,96943.59
2022-11-27T21:52:38.728Z,96952.88
2022-11-27T21:58:57.467Z,96950.03
2022-11-27T22:05:10.766Z,96924.06
2022-11-27T22:07:44.556Z,96922.63
2022-11-27T22:14:06.518Z,96922.97
2022-11-27T22:18:06.878Z,96928.78
2022-11-27T22:24:19.018Z,96923.25
2022-11-27T22:27:36.649Z,96928.88
2022-11-27T22:30:09.385Z,96917.59
2022-11-27T22:33:05.569Z,96915.63
2022-11-27T22:35:32.304Z,96904.75
2022-11-27T22:38:05.194Z,96891.69
2022-11-27T22:40:31.734Z,96889.06
2022-11-27T22:43:07.019Z,96877.22
2022-11-27T22:45:34.075Z,96876.41
2022-11-27T22:48:00.844Z,96871.38
2022-11-27T22:50:29.977Z,96868.38
2022-11-27T22:52:58.359Z,96877.44
2022-11-27T22:55:25.443Z,96877.81
2022-11-27T22:57:52.128Z,96877.41
2022-11-27T23:00:19.656Z,96873.78
2022-11-27T23:02:46.640Z,96880.19
2022-11-27T23:05:13.288Z,96876.56
2022-11-27T23:07:40.184Z,96869.28
2022-11-27T23:10:09.356Z,96843.56
2022-11-27T23:12:54.384Z,96828.28
2022-11-27T23:18:46.356Z,96852.25
2022-11-27T23:21:16.650Z,96841.09
2022-11-27T23:24:01.903Z,96837.03
2022-11-27T23:26:35.357Z,96818.09
2022-11-27T23:29:02.871Z,96808.63
2022-11-27T23:31:35.194Z,96803.59
2022-11-27T23:34:04.437Z,96802.78
2022-11-27T23:36:32.563Z,96804.91
2022-11-27T23:50:16.585Z,96793.66
2022-11-27T23:52:47.167Z,96783.78
2022-11-27T23:55:20.367Z,96797.19
2022-11-27T23:58:26.815Z,96798.41
